Colorado AWOS List, Phone Numbers, Maps

USA |  
| Search AWOS

Rocky Mountain States: Montana | Wyoming | Colorado | New Mexico

Complete weather reports: Colorado

Legend: KFNL = METAR available Follow your local AWOS on AV Mobile = METAR available on AV Mobile
Station Colorado Location Frequency Phone
KAKOFAA ID AKO, ASOS, KAKO 221153Z AUTO 34010KT 10SM CLR 03/M03 A2988 RMK AO2 SLP094 T00281033 10122 20028 53021 Follow KAKO on AV Mobile COLORADO PLAINS REGIONAL 135.475 970-345-2320
KALSFAA ID ALS, ASOS, KALS 221152Z AUTO 13009KT 10SM CLR 02/M01 A3009 Follow KALS on AV Mobile SAN LUIS VALLEY REGIONAL 135.175 719-589-5669
KASEFAA ID ASE, ASOS, KASE 221153Z 00000KT 10SM CLR 03/M07 A2999 Follow KASE on AV Mobile ASPEN-PITKIN COUNTY AIRPORT 120.400 970-925-9168
KBKFFAA ID BKF, KBKF 221158Z 21012KT 10SM FEW140 BKN200 09/M08 A2986 Follow KBKF on AV Mobile Aurora, Buckley Air Force Base Airport
K7BMFAA ID 7BM, AWOS-3, K7BM 221235Z AUTO 28005G21KT 10SM CLR 02/M13 A3004 RMK AO2 Follow K7BM on AV Mobile Cottonwood Pass 132.050 303-512-4919
KBDUFAA ID BDU, AWOS-3, KBDU 221236Z AUTO 24007KT 10SM CLR 11/M08 A2983 RMK AO2 Follow KBDU on AV Mobile Boulder Municipal Airport 118.825 303-541-9540
KAEJFAA ID AEJ, AWOS-3, KAEJ 221235Z AUTO 25008KT 10SM CLR 04/M12 A3001 RMK AO2 T00371121 Follow KAEJ on AV Mobile Central Colorado Regional Airport 132.925 719-395-2599
KITRFAA ID ITR, ASOS, KITR 221235Z AUTO 33011G23KT 10SM CLR 08/M05 A2988 RMK AO2 PK WND 35026/1224 WSHFT 1215 T00781050 Follow KITR on AV Mobile Kit Carson County Airport 135.225 719-346-7036
K1V6FAA ID 1V6, AWOS-3, K1V6 221230Z AUTO 01008KT 10SM CLR 06/M03 A2993 RMK AO2 Follow K1V6 on AV Mobile CANON CITY 120.025
KAFFFAA ID AFF, KAFF 221158Z AUTO 21007KT 10SM CLR 07/M10 A2994 RMK AO2 SLP085 T00651099 10124 20065 57007 Follow KAFF on AV Mobile Air Force Academy
KCOSFAA ID COS, ASOS, KCOS 221154Z 27012KT 10SM FEW250 10/M07 A2996 Follow KCOS on AV Mobile COLORADO SPRINGS MUNI 125.000 719-637-9696
KFLYFAA ID FLY, AWOS-3PT, KFLY 221235Z AUTO 24012KT 10SM CLR 06/M07 A2994 RMK AO2 T00551073 Follow KFLY on AV Mobile Meadowlake Airport, Peyton, CO 118.450 719-683-5371
KCCUFAA ID CCU, AWOS-3, KCCU 221235Z AUTO 4SM -SN SCT040 BKN049 BKN060 M03/M11 A3004 RMK AO2 Follow KCCU on AV Mobile Copper Mountain, Red Cliff Pass 118.075 970-968-1715
KCEZFAA ID CEZ, ASOS, KCEZ 221153Z AUTO 06005KT 10SM SCT049 02/01 A3010 RMK AO2 SLP161 T00220006 10100 20017 58012 Follow KCEZ on AV Mobile CORTEZ MONTEZUMA COUNTY AIRPORT 135.625 970-564-0193
KCAGFAA ID CAG, ASOS, KCAG 221153Z AUTO 00000KT 9SM -SN SCT070 OVC085 00/M04 A2999 Follow KCAG on AV Mobile CRAIG MOFFAT AIRPORT 135.425 970-824-2373
KRCVFAA ID RCV, AWOS-3PT, KRCV 221230Z AUTO 24011KT 10SM CLR 04/M04 A3008 RMK AO2 T00421045 Follow KRCV on AV Mobile DEL NORTE 118.275 719-657-9017
KAJZFAA ID AJZ, AWOS-3, KAJZ 221235Z AUTO 26006KT 10SM CLR 10/00 A3000 RMK AO2 T01030000 PWINO Follow KAJZ on AV Mobile Blake Field Airport 134.000 970-874-3251
KDNRICAO ID KDNR Denver / Stapleton International, Co.
KAPAFAA ID APA, ASOS, KAPA 221153Z 20013KT 10SM FEW140 09/M08 A2987 RMK AO2 SLP076 T00891083 10128 20089 55006 Follow KAPA on AV Mobile DENVER CENTENNIAL AIRPORT 120.300 303-706-9098
KDENFAA ID DEN, ASOS, KDEN 221238Z 04010KT 10SM FEW230 02/M06 A2987 Follow KDEN on AV Mobile DENVER INTERNATIONAL AIRPORT 125.600 303-342-0838
KFTGFAA ID FTG, AWOS-3, KFTG 221155Z AUTO 21014KT 10SM CLR 08/M07 A2986 RMK AO2 Follow KFTG on AV Mobile Front Range Airport 119.025 303-261-9104
KBJCFAA ID BJC, AWOS-3, KBJC 221156Z AUTO 00000KT 10SM CLR 08/M10 A2986 Follow KBJC on AV Mobile Rocky Mountain Metro Airport 126.250 720-887-8067
K4V5ICAO ID K4V5 Durango Aviation Weather Reporting Station
KDROFAA ID DRO, ASOS, KDRO 221153Z AUTO 00000KT 10SM CLR 02/M01 A3013 RMK AO2 SLP184 T00171011 10089 20011 56011 Follow KDRO on AV Mobile DURANGO-LA PLATA COUNTY AIRPORT 120.625 970-259-3579
KEGEFAA ID EGE, AWOS-3, KEGE 221156Z AUTO 28007KT 10SM BKN090 06/M04 A2997 Follow KEGE on AV Mobile Eagle County Regional 135.575 970-524-7386
CO90FAA ID CO90, ASOS, KMYJ 221310Z AUTO 19006KT 1/2SM OVC001 10/10 A2984 RMK AO2 PWINO Follow  on AV Mobile USAF Academy Bullseye Aux Airstrip 118.325 719-683-3346
K0COFAA ID 0CO, AWOS-3, K0CO 221235Z AUTO 29036G53KT 10SM SCT037 SCT046 BKN050 M07/M13 A2996 RMK AO2 Follow K0CO on AV Mobile EMPIRE 134.325
KEIKFAA ID EIK, AWOS-3, KEIK 221234Z AUTO 17004KT 10SM CLR 00/M08 A2984 RMK AO2 T00011083 Follow KEIK on AV Mobile Erie Municipal Airport 133.825 303-604-4339
KFCSFAA ID FCS, KFCS 221158Z AUTO 25012KT 10SM CLR 10/M06 A2993 RMK AO2 SLP102 T00981060 10129 20094 57004 $ Follow KFCS on AV Mobile Fort Carson
KFCLICAO ID KFCL Fort Collins Supplementary Aviation Weather Reporting Station
KFNLFAA ID FNL, AWOS-3, KFNL 221156Z AUTO 03010KT 10SM CLR 05/M03 A2986 RMK AO2 SLP082 T00501033 10150 20044 51007 Follow KFNL on AV Mobile Fort Collins/Loveland, Fort Collins-Loveland Municipal Airport 135.075 970-669-9187
KFMMFAA ID FMM, AWOS-3, KFMM 221235Z AUTO 34021G27KT 10SM CLR 05/M05 A2985 RMK AO2 T00481052 Follow KFMM on AV Mobile Fort Morgan Municipal Airport 132.950 970-867-4823
KGNBFAA ID GNB, AWOS-3PT Granby-Grand County Airport 119.925 970-887-1803
KGJTFAA ID GJT, ASOS, KGJT 221153Z AUTO 06005KT 10SM CLR 04/01 A2996 Follow KGJT on AV Mobile GRAND JUNCTION WALKER FIELD 118.550 970-245-7881
KGXYFAA ID GXY, AWOS-3, KGXY 221156Z AUTO 34013KT 10SM CLR 04/M04 A2987 RMK AO2 SLP103 7//// T00391039 10144 20039 51007 Follow KGXY on AV Mobile Greeley, Greeley-Weld County Airport 135.175 970-352-3511
K2V9ICAO ID K2V9 Gunnison Aviation Weather Reporting Station
KGUCFAA ID GUC, AWOS-3, KGUC 221156Z AUTO 26013G17KT 10SM CLR 04/M08 A3005 RMK AO2 SLP169 T00391078 10039 21067 56012 Follow KGUC on AV Mobile Gunnison, Gunnison-Crested Butte Regional Airport 135.075 970-641-3240
KHDNFAA ID HDN, AWOS-3, KHDN 221235Z AUTO 26006KT 10SM FEW021 SCT028 BKN036 M01/M05 A2997 RMK AO1 Follow KHDN on AV Mobile Hayden, Yampa Valley Airport 119.275 970-276-3690
KHEQFAA ID HEQ, AWOS-3, KHEQ 221235Z AUTO 26006KT 10SM CLR 01/M04 A2986 RMK AO2 Follow KHEQ on AV Mobile Holyoke Airport 119.275 970-854-3679
K20VFAA ID 20V, AWOS-3, K20V 221235Z AUTO 24012G20KT 10SM SCT029 SCT060 OVC085 07/M05 A2994 RMK AO2 Follow K20V on AV Mobile Kremmling, Mc Elroy Airfield 118.425 970-724-9659
KLHXFAA ID LHX, ASOS, KLHX 221153Z AUTO 27008KT 10SM CLR 08/M05 A2988 RMK AO2 SLP075 T00831050 10144 20067 56006 Follow KLHX on AV Mobile LA JUNTA MUNICIPAL AIRPORT 135.525 719-384-5961
KVTPFAA ID VTP, AWOS-3, KVTP 221232Z AUTO 02010G21KT 10SM SCT029 SCT035 00/M03 A3015 RMK AO2 Follow KVTP on AV Mobile La Veta Mountain, La Veta Pass 119.925 719-587-3120
KLAAFAA ID LAA, ASOS, KLAA 221153Z AUTO 00000KT 10SM CLR 03/M09 A2984 RMK AO2 SLP078 T00281094 10167 21006 58008 Follow KLAA on AV Mobile LAMAR MUNICIPAL AIRPORT 135.625 719-336-3854
KLXVFAA ID LXV, ASOS, KLXV 221153Z AUTO 26004KT 10SM CLR M01/M13 A3001 Follow KLXV on AV Mobile LEADVILLE LAKE CO 118.375 719-486-2735
KLICFAA ID LIC, ASOS, KLIC 221155Z AUTO 26016G28KT 10SM CLR 11/M11 A2985 RMK AO2 PK WND 27028/1149 SLP050 T01111106 10139 20050 55005 Follow KLIC on AV Mobile LIMON MUNICIPAL AIRPORT 121.125 719-775-0515
KLMOFAA ID LMO, AWOS-3, KLMO 221233Z AUTO 24010G18KT 10SM CLR 14/M09 A2985 RMK AO2 T01381088 Follow KLMO on AV Mobile Vance Brand Airport 120.000 303-684-7545
KEEOFAA ID EEO, ASOS, KEEO 221153Z AUTO 23011KT 10SM OVC075 07/M01 A2994 RMK AO2 PK WND 23028/1128 SLP095 T00671011 10094 20067 56010 Follow KEEO on AV Mobile MEEKER AIRPORT 135.525 970-878-5036
KMYPFAA ID MYP, AWOS-3, KMYP 221227Z AUTO 26037G43KT 10SM CLR M06/M11 A3018 RMK AO2 Follow KMYP on AV Mobile Salida Mountain, Monarch Pass 124.175 719-539-4436
KMTJFAA ID MTJ, ASOS, KMTJ 221153Z AUTO 00000KT 10SM CLR 06/M04 A3003 RMK AO2 SLP129 T00611039 10122 20050 58005 Follow KMTJ on AV Mobile MONTROSE REGIONAL AIRPORT 135.225 970-249-1534
KMNHFAA ID MNH, AWOS-3, KMNH 221234Z AUTO 24013KT 10SM CLR 05/M08 A2994 RMK AO2 Follow KMNH on AV Mobile Elbert Mountain, Monument Pass 134.375 303-648-3479
KCRVICAO ID KCRV Nederland Mountain, Corona Pass
KAIBFAA ID AIB, AWOS-3, KAIB 221235Z AUTO 11007KT 10SM CLR 06/00 A3008 RMK AO2 Follow KAIB on AV Mobile Hopkins Field Airport 132.525 970-864-2325
KPSOFAA ID PSO, AWOS-3, KPSO 221235Z AUTO 00000KT 10SM CLR 00/00 A3016 RMK AO2 T10021003 Follow KPSO on AV Mobile Stevens Field Airport 127.175 970-731-0365
KPEFICAO ID KPEF Peterson Air Force Base
KPUXICAO ID KPUX Pueblo NEXRAD
KPUBFAA ID PUB, ASOS, KPUB 221153Z AUTO 28003KT 10SM CLR 08/M05 A2990 Follow KPUB on AV Mobile PUEBLO MEMORIAL AIRPORT 125.250 719-948-2803
4V0FAA ID 4V0, AWOS-3PT, KMYJ 221310Z AUTO 19006KT 1/2SM OVC001 10/10 A2984 RMK AO2 PWINO Follow  on AV Mobile RANGELY 119.025 970-675-2339
K1V1ICAO ID K1V1 Rifle Aviation Weather Reporting Station
KRILFAA ID RIL, ASOS, KRIL 221153Z AUTO 00000KT 10SM FEW075 08/M01 A2994 RMK AO2 SLP104 T00781006 10106 20061 56004 Follow KRIL on AV Mobile RIFLE GARFIELD COUNTY RGNL 135.275 970-625-2206
K04VFAA ID 04V, AWOS-3, K04V 221235Z AUTO 33004KT 10SM CLR M02/M06 A3007 RMK AO2 Follow K04V on AV Mobile Saguache, Saguache Municipal Airport 118.625 719-655-2229
KS29ICAO ID KS29 Salida
KANKFAA ID ANK, AWOS-3, KANK 221235Z AUTO 21007KT 10SM CLR 04/M05 A3010 RMK AO1 T00421050 Follow KANK on AV Mobile Harriet Alexander Field Airport 133.850 719-539-5268
KSPDICAO ID KSPD, KSPD 221156Z AUTO 28013KT 11/M06 A2988 RMK AO1 SLP068 7//// T01061061 10133 20072 58006 Follow KSPD on AV Mobile SPRINGFIELD COMANCHE NATL
KSBSFAA ID SBS, AWOS-3, KSBS 221234Z AUTO 00000KT 7SM SCT022 BKN038 OVC090 M02/M03 A2996 RMK AO1 T10171035 Follow KSBS on AV Mobile Steamboat Springs 118.325 970-879-7794
KSTKFAA ID STK, AWOS-3, KSTK 221210Z AUTO 00000KT 10SM CLR 04/M01 A2985 RMK AO2 Follow KSTK on AV Mobile Sterling Municipal Airport 118.525 970-526-3009
K5SMFAA ID 5SM, AWOS-3, K5SM 060759Z AUTO 23014G29KT 7SM SCT120 M03/M08 A3000 RMK AO2 TSNO Follow K5SM on AV Mobile Sunlight 126.075 970-384-3380
KTEXFAA ID TEX, AWOS-3, KTEX 221235Z AUTO 25009G27KT 10SM CLR 04/M11 A3012 RMK AO2 T00401106 Follow KTEX on AV Mobile Telluride, Telluride Regional Airport 118.325 970-728-1534
KTADFAA ID TAD, ASOS, KTAD 221154Z AUTO 24019KT 10SM CLR 11/M03 A2994 RMK AO2 SLP075 T01111033 10128 20083 56010 Follow KTAD on AV Mobile Trinidad, Perry Stokes Airport 119.025 719-845-1156
K33VFAA ID 33V, AWOS-3, K33V 190017Z AUTO 08004KT 10SM 02/M02 A2976 RMK AO2 Follow K33V on AV Mobile WALDEN 118.625 970-723-4513
4V1FAA ID 4V1, AWOS-3, KMYJ 221310Z AUTO 19006KT 1/2SM OVC001 10/10 A2984 RMK AO2 PWINO Follow  on AV Mobile Spanish Peaks Airfield 123.600 719-738-1053
K4BMFAA ID 4BM, AWOS-3, K4BM 221236Z AUTO 20011G22KT 160V220 10SM BKN100 M03/M12 A3006 RMK AO2 Follow K4BM on AV Mobile Wilkerson Pass 132.3 303-512-4418
KC96ICAO ID KC96 Winter Park Resort
KCPWFAA ID CPW, AWOS-3, KCPW 221235Z AUTO 20019G28KT 3/4SM BR OVC003 M05/M05 A3022 RMK AO2 Follow KCPW on AV Mobile Pagosa Springs, Wolf Creek Pass 121.125 970-264-2180
K2V5FAA ID 2V5, AWOS-3, K2V5 172115Z AUTO 35013G18KT 10SM CLR 19/M08 A2969 RMK AO2 Follow K2V5 on AV Mobile Wray Municipal Airport 118.250 970-332-5930
K2V6FAA ID 2V6, AWOS-3, K2V6 221234Z AUTO 24005KT 10SM CLR 01/M05 A2988 RMK AO2 Follow K2V6 on AV Mobile YUMA 135.375 970-848-3007

Click on the AV Mobile icon AV Mobile icon by any station to follow that AWOS feed on AirportView.net Mobile.

Legend: Commercial service airport with AWOS Commercial Airport AWOSNon-Commercial service airport with AWOS Non-Commercial Airport AWOS
Airport AWOS - Click symbol for weather report Fort Morgan Municipal Airport KFMM 221235Z AUTO 34021G27KT 10SM CLR 05/M05 A2985 RMK AO2 T00481052 Hopkins Field Airport KAIB 221235Z AUTO 11007KT 10SM CLR 06/00 A3008 RMK AO2 Telluride, Telluride Regional Airport KTEX 221235Z AUTO 25009G27KT 10SM CLR 04/M11 A3012 RMK AO2 T00401106 Greeley, Greeley-Weld County Airport KGXY 221156Z AUTO 34013KT 10SM CLR 04/M04 A2987 RMK AO2 SLP103 7//// T00391039 10144 20039 51007 Front Range Airport KFTG 221155Z AUTO 21014KT 10SM CLR 08/M07 A2986 RMK AO2 Rocky Mountain Metro Airport KBJC 221156Z AUTO 00000KT 10SM CLR 08/M10 A2986 DENVER CENTENNIAL AIRPORT KAPA 221153Z 20013KT 10SM FEW140 09/M08 A2987 RMK AO2 SLP076 T00891083 10128 20089 55006 DENVER INTERNATIONAL AIRPORT KDEN 221238Z 04010KT 10SM FEW230 02/M06 A2987 Fort Collins/Loveland, Fort Collins-Loveland Municipal Airport KFNL 221156Z AUTO 03010KT 10SM CLR 05/M03 A2986 RMK AO2 SLP082 T00501033 10150 20044 51007 Boulder Municipal Airport KBDU 221236Z AUTO 24007KT 10SM CLR 11/M08 A2983 RMK AO2 Vance Brand Airport KLMO 221233Z AUTO 24010G18KT 10SM CLR 14/M09 A2985 RMK AO2 T01381088 Sterling Municipal Airport KSTK 221210Z AUTO 00000KT 10SM CLR 04/M01 A2985 RMK AO2 Holyoke Airport KHEQ 221235Z AUTO 26006KT 10SM CLR 01/M04 A2986 RMK AO2 COLORADO PLAINS REGIONAL KAKO 221153Z AUTO 34010KT 10SM CLR 03/M03 A2988 RMK AO2 SLP094 T00281033 10122 20028 53021 Kit Carson County Airport KITR 221235Z AUTO 33011G23KT 10SM CLR 08/M05 A2988 RMK AO2 PK WND 35026/1224 WSHFT 1215 T00781050 LIMON MUNICIPAL AIRPORT KLIC 221155Z AUTO 26016G28KT 10SM CLR 11/M11 A2985 RMK AO2 PK WND 27028/1149 SLP050 T01111106 10139 20050 55005 COLORADO SPRINGS MUNI KCOS 221154Z 27012KT 10SM FEW250 10/M07 A2996 LAMAR MUNICIPAL AIRPORT KLAA 221153Z AUTO 00000KT 10SM CLR 03/M09 A2984 RMK AO2 SLP078 T00281094 10167 21006 58008 LA JUNTA MUNICIPAL AIRPORT KLHX 221153Z AUTO 27008KT 10SM CLR 08/M05 A2988 RMK AO2 SLP075 T00831050 10144 20067 56006 Trinidad, Perry Stokes Airport KTAD 221154Z AUTO 24019KT 10SM CLR 11/M03 A2994 RMK AO2 SLP075 T01111033 10128 20083 56010 PUEBLO MEMORIAL AIRPORT KPUB 221153Z AUTO 28003KT 10SM CLR 08/M05 A2990 CANON CITY 1V6 SAN LUIS VALLEY REGIONAL KALS 221152Z AUTO 13009KT 10SM CLR 02/M01 A3009 Saguache, Saguache Municipal Airport K04V 221235Z AUTO 33004KT 10SM CLR M02/M06 A3007 RMK AO2 Granby-Grand County Airport KGNB WALDEN 33V Steamboat Springs KSBS 221234Z AUTO 00000KT 7SM SCT022 BKN038 OVC090 M02/M03 A2996 RMK AO1 T10171035 Hayden, Yampa Valley Airport KHDN 221235Z AUTO 26006KT 10SM FEW021 SCT028 BKN036 M01/M05 A2997 RMK AO1 Kremmling, Mc Elroy Airfield K20V 221235Z AUTO 24012G20KT 10SM SCT029 SCT060 OVC085 07/M05 A2994 RMK AO2 LEADVILLE LAKE CO KLXV 221153Z AUTO 26004KT 10SM CLR M01/M13 A3001 Eagle County Regional KEGE 221156Z AUTO 28007KT 10SM BKN090 06/M04 A2997 CRAIG MOFFAT AIRPORT KCAG 221153Z AUTO 00000KT 9SM -SN SCT070 OVC085 00/M04 A2999 MEEKER AIRPORT KEEO 221153Z AUTO 23011KT 10SM OVC075 07/M01 A2994 RMK AO2 PK WND 23028/1128 SLP095 T00671011 10094 20067 56010 ASPEN-PITKIN COUNTY AIRPORT KASE 221153Z 00000KT 10SM CLR 03/M07 A2999 Gunnison, Gunnison-Crested Butte Regional Airport KGUC 221156Z AUTO 26013G17KT 10SM CLR 04/M08 A3005 RMK AO2 SLP169 T00391078 10039 21067 56012 DURANGO-LA PLATA COUNTY AIRPORT  KDRO 221153Z AUTO 00000KT 10SM CLR 02/M01 A3013 RMK AO2 SLP184 T00171011 10089 20011 56011 Stevens Field Airport KPSO 221235Z AUTO 00000KT 10SM CLR 00/00 A3016 RMK AO2 T10021003 CORTEZ MONTEZUMA COUNTY AIRPORT  KCEZ 221153Z AUTO 06005KT 10SM SCT049 02/01 A3010 RMK AO2 SLP161 T00220006 10100 20017 58012 MONTROSE REGIONAL AIRPORT KMTJ 221153Z AUTO 00000KT 10SM CLR 06/M04 A3003 RMK AO2 SLP129 T00611039 10122 20050 58005 RIFLE GARFIELD COUNTY RGNL KRIL 221153Z AUTO 00000KT 10SM FEW075 08/M01 A2994 RMK AO2 SLP104 T00781006 10106 20061 56004 GRAND JUNCTION WALKER FIELD KGJT 221153Z AUTO 06005KT 10SM CLR 04/01 A2996 Blake Field Airport KAJZ 221235Z AUTO 26006KT 10SM CLR 10/00 A3000 RMK AO2 T01030000 PWINO Central Colorado Regional Airport KAEJ 221235Z AUTO 25008KT 10SM CLR 04/M12 A3001 RMK AO2 T00371121 Harriet Alexander Field Airport KANK 221235Z AUTO 21007KT 10SM CLR 04/M05 A3010 RMK AO1 T00421050 Erie Municipal Airport KEIK 221234Z AUTO 17004KT 10SM CLR 00/M08 A2984 RMK AO2 T00011083 Wray Municipal Airport K2V5 172115Z AUTO 35013G18KT 10SM CLR 19/M08 A2969 RMK AO2
Legend: High Mountain AWOS Mountain Pass AWOS
Mountain Pass AWOS - Click symbol for weather report Pagosa Springs, Wolf Creek Pass KCPW 221235Z AUTO 20019G28KT 3/4SM BR OVC003 M05/M05 A3022 RMK AO2 Saguache, Saguache Municipal Airport K04V 221235Z AUTO 33004KT 10SM CLR M02/M06 A3007 RMK AO2 Kremmling, Mc Elroy Airfield K20V 221235Z AUTO 24012G20KT 10SM SCT029 SCT060 OVC085 07/M05 A2994 RMK AO2 La Veta Mountain, La Veta Pass KVTP 221232Z AUTO 02010G21KT 10SM SCT029 SCT035 00/M03 A3015 RMK AO2 Salida Mountain, Monarch Pass KMYP 221227Z AUTO 26037G43KT 10SM CLR M06/M11 A3018 RMK AO2 Cottonwood Pass K7BM 221235Z AUTO 28005G21KT 10SM CLR 02/M13 A3004 RMK AO2 Elbert Mountain, Monument Pass KMNH 221234Z AUTO 24013KT 10SM CLR 05/M08 A2994 RMK AO2 Wilkerson Pass K4BM 221236Z AUTO 20011G22KT 160V220 10SM BKN100 M03/M12 A3006 RMK AO2 Copper Mountain, Red Cliff Pass KCCU 221235Z AUTO 4SM -SN SCT040 BKN049 BKN060 M03/M11 A3004 RMK AO2 EMPIRE 0CO Sunlight K5SM 060759Z AUTO 23014G29KT 7SM SCT120 M03/M08 A3000 RMK AO2 TSNO
Garmin Weather Avemco Insurance Company